Time;durP1;ratioP1;P1;durP2;ratioP2;P2;SDS_P1;SDS_P2;PMS_P1;PMS_P2;Temp;Humidity;BMP_temperature;BMP_pressure;BME280_temperature;BME280_humidity;BME280_pressure;Samples;Min_cycle;Max_cycle;Signal;HPM_P1;HPM_P2
2022/03/06 00:02:18;;;;;;;55.63;22.08;;;;;;;1.89;89.65;102292.50;5036981;28;20131;-55
2022/03/06 00:04:43;;;;;;;53.08;21.60;;;;;;;1.86;89.45;102296.09;5040419;28;20110;-55
2022/03/06 00:07:08;;;;;;;59.67;21.83;;;;;;;1.84;89.88;102295.31;5048754;28;20032;-55
2022/03/06 00:09:33;;;;;;;54.42;21.95;;;;;;;1.82;89.11;102283.16;5052945;28;20044;-55
2022/03/06 00:11:59;;;;;;;56.20;21.63;;;;;;;1.78;89.32;102287.72;5055476;28;20024;-55
2022/03/06 00:14:24;;;;;;;58.70;22.42;;;;;;;1.70;89.06;102292.47;5055744;28;20116;-55
2022/03/06 00:16:52;;;;;;;54.10;21.42;;;;;;;1.64;90.23;102295.34;5054363;28;20538;-55
2022/03/06 00:19:17;;;;;;;54.58;21.15;;;;;;;1.59;90.45;102295.56;5054520;28;20040;-56
2022/03/06 00:21:43;;;;;;;56.47;21.95;;;;;;;1.58;91.12;102298.25;5019465;28;20423;-55
2022/03/06 00:24:08;;;;;;;55.75;22.50;;;;;;;1.46;90.07;102297.00;5036310;28;20182;-56
2022/03/06 00:26:34;;;;;;;53.00;21.77;;;;;;;1.47;90.35;102301.34;5035308;28;20371;-55
2022/03/06 00:29:00;;;;;;;55.25;21.20;;;;;;;1.42;90.46;102300.69;5044872;28;20032;-56
2022/03/06 00:31:25;;;;;;;50.88;21.50;;;;;;;1.40;90.59;102305.19;5051334;28;20032;-55
2022/03/06 00:33:52;;;;;;;58.70;22.52;;;;;;;1.39;92.12;102311.34;5055139;28;20037;-55
2022/03/06 00:36:18;;;;;;;53.05;20.67;;;;;;;1.36;92.21;102306.22;5052147;28;20051;-55
2022/03/06 00:38:43;;;;;;;56.42;21.95;;;;;;;1.34;91.12;102314.22;5053600;28;20017;-55
2022/03/06 00:41:10;;;;;;;58.90;22.13;;;;;;;1.32;91.05;102312.53;5054508;28;20535;-55
2022/03/06 00:43:36;;;;;;;56.10;21.83;;;;;;;1.32;91.90;102315.19;5054037;28;20126;-55
2022/03/06 00:46:01;;;;;;;58.45;22.85;;;;;;;1.35;92.33;102326.44;5046133;28;20032;-56
2022/03/06 00:48:26;;;;;;;52.85;21.38;;;;;;;1.32;92.22;102323.91;5048042;28;20214;-56
2022/03/06 00:50:52;;;;;;;50.92;21.50;;;;;;;1.28;92.26;102330.25;5036333;28;20430;-56
2022/03/06 00:53:17;;;;;;;56.85;21.45;;;;;;;1.26;92.81;102329.47;5051552;28;20439;-55
2022/03/06 00:55:42;;;;;;;54.70;20.13;;;;;;;1.21;92.02;102329.63;5047625;28;20036;-55
2022/03/06 00:58:09;;;;;;;53.85;21.35;;;;;;;1.17;93.49;102332.44;5050072;28;20470;-55
2022/03/06 01:00:39;;;;;;;56.22;21.50;;;;;;;1.13;93.02;102328.25;5049719;28;20017;-55
2022/03/06 01:03:08;;;;;;;49.85;20.20;;;;;;;1.08;92.76;102325.81;5051560;28;20479;-55
2022/03/06 01:05:34;;;;;;;51.17;20.73;;;;;;;1.08;93.49;102334.53;5048557;28;20047;-55
2022/03/06 01:07:59;;;;;;;51.05;21.90;;;;;;;1.02;93.22;102331.31;5042516;28;20029;-55
2022/03/06 01:10:26;;;;;;;54.28;22.60;;;;;;;1.03;93.97;102339.13;5044585;28;20394;-55
2022/03/06 01:12:51;;;;;;;52.60;20.92;;;;;;;0.96;94.09;102335.03;5053753;28;20490;-56
2022/03/06 01:15:17;;;;;;;54.20;20.83;;;;;;;0.93;94.82;102333.41;5040730;28;20138;-56
2022/03/06 01:17:42;;;;;;;50.88;20.98;;;;;;;0.87;94.47;102333.66;5046677;28;20584;-56
2022/03/06 01:20:08;;;;;;;49.00;21.42;;;;;;;0.88;95.51;102340.63;5054351;28;20054;-56
2022/03/06 01:22:34;;;;;;;53.92;21.60;;;;;;;0.87;95.20;102335.44;5052876;28;20494;-56
2022/03/06 01:24:59;;;;;;;54.58;21.15;;;;;;;0.85;94.97;102332.84;5054345;28;20232;-56
2022/03/06 01:27:24;;;;;;;51.83;20.98;;;;;;;0.87;95.72;102336.28;5052169;28;20024;-56
2022/03/06 01:29:50;;;;;;;49.78;20.02;;;;;;;0.85;95.80;102340.75;5045955;28;20462;-56
2022/03/06 01:32:15;;;;;;;53.45;21.42;;;;;;;0.83;95.99;102345.22;5039049;28;20031;-56
2022/03/06 01:34:41;;;;;;;53.72;20.77;;;;;;;0.79;95.83;102348.88;5053035;28;20461;-56
2022/03/06 01:37:06;;;;;;;52.80;21.10;;;;;;;0.77;96.48;102347.25;5042138;28;20127;-56
2022/03/06 01:39:31;;;;;;;50.05;19.90;;;;;;;0.75;96.06;102347.28;5041830;28;20036;-55
2022/03/06 01:41:57;;;;;;;49.47;19.80;;;;;;;0.70;96.93;102344.00;5047764;28;20039;-56
2022/03/06 01:44:22;;;;;;;58.22;21.33;;;;;;;0.66;96.60;102351.16;5035670;28;20031;-56
2022/03/06 01:46:48;;;;;;;54.22;22.00;;;;;;;0.61;96.99;102352.22;5045449;28;20637;-56
2022/03/06 01:49:15;;;;;;;52.40;20.13;;;;;;;0.54;97.15;102348.97;5033289;28;20036;-56
2022/03/06 01:51:41;;;;;;;49.10;20.13;;;;;;;0.53;97.37;102349.91;5035240;28;20451;-56
2022/03/06 01:54:07;;;;;;;52.97;20.15;;;;;;;0.50;97.36;102355.25;5053036;28;20050;-56
2022/03/06 01:56:32;;;;;;;52.05;21.58;;;;;;;0.49;96.81;102353.53;5041777;28;20033;-56
2022/03/06 01:59:00;;;;;;;52.00;19.98;;;;;;;0.45;97.70;102357.22;5033819;28;20424;-56
2022/03/06 02:01:25;;;;;;;52.92;20.25;;;;;;;0.43;98.37;102353.78;5043449;28;20108;-56
2022/03/06 02:03:51;;;;;;;51.40;20.30;;;;;;;0.38;98.25;102355.75;5039884;28;20047;-56
2022/03/06 02:06:19;;;;;;;53.42;20.80;;;;;;;0.34;98.77;102352.34;5052555;28;20039;-56
2022/03/06 02:08:44;;;;;;;50.92;21.17;;;;;;;0.33;98.72;102355.91;5051944;28;20029;-55
2022/03/06 02:11:10;;;;;;;47.83;19.48;;;;;;;0.31;98.58;102357.75;5048243;28;20029;-56
2022/03/06 02:13:37;;;;;;;53.88;21.05;;;;;;;0.28;98.66;102356.06;5043900;28;20069;-55
2022/03/06 02:16:02;;;;;;;50.75;19.58;;;;;;;0.25;97.71;102355.31;5052728;28;20035;-56
2022/03/06 02:18:27;;;;;;;53.75;20.20;;;;;;;0.17;98.52;102361.72;5052637;28;20498;-55
2022/03/06 02:20:53;;;;;;;53.65;21.13;;;;;;;0.15;99.26;102355.69;5053775;28;20431;-56
2022/03/06 02:23:18;;;;;;;48.15;19.42;;;;;;;0.17;100.00;102360.84;5029828;28;20107;-56
2022/03/06 02:25:44;;;;;;;51.90;19.58;;;;;;;0.15;99.79;102357.44;5044037;28;20020;-56
2022/03/06 02:28:10;;;;;;;55.65;19.92;;;;;;;0.14;99.81;102366.25;5038444;28;20219;-56
2022/03/06 02:30:42;;;;;;;45.17;20.50;;;;;;;0.11;100.00;102363.72;5037896;28;20083;-56
2022/03/06 02:33:11;;;;;;;53.45;19.85;;;;;;;0.07;99.91;102365.59;5038674;28;20558;-56
2022/03/06 02:35:37;;;;;;;47.00;19.40;;;;;;;0.02;100.00;102369.28;5052979;28;20048;-56
2022/03/06 02:38:03;;;;;;;45.80;19.65;;;;;;;-0.02;100.00;102368.53;5052119;28;20495;-56
2022/03/06 02:40:29;;;;;;;47.00;19.38;;;;;;;-0.04;100.00;102370.38;5039505;28;20033;-56
2022/03/06 02:42:55;;;;;;;53.35;19.15;;;;;;;-0.07;100.00;102373.09;5046234;28;20057;-56
2022/03/06 02:45:24;;;;;;;54.58;20.73;;;;;;;-0.11;100.00;102374.16;5051195;28;20387;-56
2022/03/06 02:47:51;;;;;;;48.25;19.08;;;;;;;-0.11;100.00;102375.00;5033522;28;20025;-56
2022/03/06 02:50:19;;;;;;;48.75;19.48;;;;;;;-0.11;100.00;102367.13;5039463;28;20072;-56
2022/03/06 02:52:45;;;;;;;47.33;19.50;;;;;;;-0.13;100.00;102361.06;5032890;28;20028;-56
2022/03/06 02:55:11;;;;;;;52.15;20.48;;;;;;;-0.14;100.00;102369.84;5050758;28;20032;-56
2022/03/06 02:57:37;;;;;;;59.72;21.25;;;;;;;-0.19;100.00;102369.16;5033103;28;20043;-55
2022/03/06 03:00:05;;;;;;;49.22;20.58;;;;;;;-0.22;100.00;102374.50;5041988;28;20278;-55
2022/03/06 03:02:31;;;;;;;46.67;18.38;;;;;;;-0.23;100.00;102378.91;5053200;28;20051;-56
2022/03/06 03:04:56;;;;;;;48.05;18.80;;;;;;;-0.24;100.00;102369.31;5053069;28;20056;-55
2022/03/06 03:07:21;;;;;;;49.35;19.90;;;;;;;-0.28;100.00;102365.06;5041735;28;20032;-56
2022/03/06 03:09:46;;;;;;;48.20;20.02;;;;;;;-0.29;100.00;102370.38;5039323;28;20490;-56
2022/03/06 03:12:12;;;;;;;44.75;19.08;;;;;;;-0.29;100.00;102378.25;5015708;28;20483;-56
2022/03/06 03:14:37;;;;;;;49.83;18.75;;;;;;;-0.32;100.00;102380.97;5048655;28;20116;-56
2022/03/06 03:17:04;;;;;;;48.55;18.95;;;;;;;-0.32;100.00;102387.09;5048298;28;20502;-56
2022/03/06 03:19:29;;;;;;;47.15;18.33;;;;;;;-0.33;100.00;102381.91;5048119;28;20020;-56
2022/03/06 03:21:55;;;;;;;47.05;19.55;;;;;;;-0.34;100.00;102374.94;5033630;28;20052;-55
2022/03/06 03:24:20;;;;;;;47.88;18.38;;;;;;;-0.38;100.00;102369.78;5032711;28;20036;-56
2022/03/06 03:26:46;;;;;;;45.22;18.90;;;;;;;-0.39;100.00;102373.34;5051919;28;20529;-56
2022/03/06 03:29:11;;;;;;;47.95;18.65;;;;;;;-0.41;100.00;102369.91;5052850;28;20032;-56
2022/03/06 03:31:36;;;;;;;46.42;17.85;;;;;;;-0.44;100.00;102374.38;5039156;28;20032;-56
2022/03/06 03:34:02;;;;;;;41.40;17.90;;;;;;;-0.49;100.00;102377.19;5050342;28;20536;-56
2022/03/06 03:36:27;;;;;;;42.10;17.67;;;;;;;-0.47;100.00;102374.50;5037934;28;20150;-56
2022/03/06 03:38:53;;;;;;;49.70;18.50;;;;;;;-0.46;100.00;102376.22;5055285;28;20620;-56
2022/03/06 03:41:18;;;;;;;47.45;19.20;;;;;;;-0.51;100.00;102376.38;5044215;28;20407;-56
2022/03/06 03:43:43;;;;;;;42.97;18.52;;;;;;;-0.55;100.00;102380.00;5055599;28;20128;-56
2022/03/06 03:46:09;;;;;;;41.80;17.65;;;;;;;-0.57;100.00;102385.28;5052286;28;20147;-56
2022/03/06 03:48:34;;;;;;;47.72;17.88;;;;;;;-0.60;100.00;102392.41;5046632;28;20638;-56
2022/03/06 03:51:00;;;;;;;45.20;19.15;;;;;;;-0.70;100.00;102380.50;5056139;28;20028;-56
2022/03/06 03:53:25;;;;;;;43.95;18.00;;;;;;;-0.66;100.00;102390.88;5041011;28;20330;-56
2022/03/06 03:55:52;;;;;;;45.03;18.23;;;;;;;-0.70;100.00;102391.84;5048296;28;20112;-56
2022/03/06 03:58:18;;;;;;;41.72;17.42;;;;;;;-0.71;100.00;102391.91;5056236;28;20111;-56
2022/03/06 04:00:44;;;;;;;46.50;19.17;;;;;;;-0.75;100.00;102383.28;5050292;28;20044;-56
2022/03/06 04:03:09;;;;;;;42.20;18.50;;;;;;;-0.77;100.00;102385.09;5035267;28;20032;-56
2022/03/06 04:05:35;;;;;;;47.40;19.55;;;;;;;-0.80;100.00;102379.94;5045192;28;20044;-56
2022/03/06 04:08:00;;;;;;;46.83;19.05;;;;;;;-0.84;100.00;102392.31;5046941;28;20021;-56
2022/03/06 04:10:26;;;;;;;46.28;18.52;;;;;;;-0.84;100.00;102400.19;5043803;28;20161;-56
2022/03/06 04:12:51;;;;;;;41.83;18.63;;;;;;;-0.84;100.00;102392.31;5051966;28;20483;-56
2022/03/06 04:15:16;;;;;;;46.25;18.55;;;;;;;-0.85;100.00;102406.34;5050026;28;20166;-56
2022/03/06 04:17:41;;;;;;;43.10;18.05;;;;;;;-0.87;100.00;102407.28;5050884;28;20086;-56
2022/03/06 04:20:07;;;;;;;44.80;19.38;;;;;;;-0.87;100.00;102410.75;5046325;28;20403;-56
2022/03/06 04:22:33;;;;;;;44.65;19.20;;;;;;;-0.91;100.00;102401.28;5035035;28;20121;-56
2022/03/06 04:24:59;;;;;;;43.95;18.40;;;;;;;-0.88;100.00;102406.44;5037266;28;20040;-55
2022/03/06 04:27:24;;;;;;;40.90;18.25;;;;;;;-0.87;100.00;102404.66;5051079;28;20395;-56
2022/03/06 04:29:49;;;;;;;43.40;18.20;;;;;;;-0.86;100.00;102406.38;5034133;28;20442;-56
2022/03/06 04:32:15;;;;;;;43.67;18.92;;;;;;;-0.89;100.00;102409.94;5029181;28;20131;-56
2022/03/06 04:34:40;;;;;;;42.95;18.52;;;;;;;-0.91;100.00;102414.41;5054831;28;20051;-56
2022/03/06 04:37:05;;;;;;;49.05;18.58;;;;;;;-0.87;100.00;102429.13;5053482;28;20250;-56
2022/03/06 04:39:31;;;;;;;42.28;19.42;;;;;;;-0.89;100.00;102423.06;5051935;28;20104;-56
2022/03/06 04:41:56;;;;;;;42.55;18.00;;;;;;;-0.92;100.00;102433.66;5051169;28;20111;-56
2022/03/06 04:44:22;;;;;;;41.30;17.88;;;;;;;-0.92;100.00;102430.19;5054621;28;20376;-56
2022/03/06 04:46:47;;;;;;;41.70;18.92;;;;;;;-0.97;100.00;102430.31;5053940;28;20047;-55
2022/03/06 04:49:13;;;;;;;42.15;19.08;;;;;;;-0.98;100.00;102439.09;5043478;28;20025;-56
2022/03/06 04:51:39;;;;;;;41.63;17.88;;;;;;;-1.02;100.00;102446.22;5037723;28;20645;-56
2022/03/06 04:54:04;;;;;;;39.58;18.48;;;;;;;-1.04;100.00;102452.38;5052338;28;20177;-56
2022/03/06 04:56:30;;;;;;;42.80;19.75;;;;;;;-1.09;100.00;102444.66;5053731;28;20205;-56
2022/03/06 04:58:55;;;;;;;42.85;19.33;;;;;;;-1.14;100.00;102459.66;5055278;28;20119;-56
2022/03/06 05:01:21;;;;;;;42.85;18.88;;;;;;;-1.15;100.00;102461.44;5051953;28;20089;-56
2022/03/06 05:03:46;;;;;;;42.83;19.35;;;;;;;-1.16;100.00;102456.22;5046856;28;20803;-56
2022/03/06 05:06:11;;;;;;;42.92;18.17;;;;;;;-1.18;100.00;102460.66;5037582;28;20467;-56
2022/03/06 05:08:36;;;;;;;41.42;18.48;;;;;;;-1.22;100.00;102459.91;5050521;28;20029;-55
2022/03/06 05:11:02;;;;;;;42.13;18.85;;;;;;;-1.26;100.00;102457.41;5054083;28;20430;-56
2022/03/06 05:13:27;;;;;;;41.88;18.58;;;;;;;-1.28;100.00;102469.72;5034836;28;20060;-56
2022/03/06 05:15:53;;;;;;;39.53;18.38;;;;;;;-1.34;100.00;102465.47;5050470;28;20040;-56
2022/03/06 05:18:18;;;;;;;41.15;18.85;;;;;;;-1.32;100.00;102468.94;5053332;28;20024;-56
2022/03/06 05:20:44;;;;;;;42.92;19.13;;;;;;;-1.28;100.00;102469.72;5053927;28;20210;-56
2022/03/06 05:23:09;;;;;;;41.45;17.98;;;;;;;-1.29;100.00;102476.72;5041975;28;20059;-55
2022/03/06 05:25:35;;;;;;;42.80;18.05;;;;;;;-1.28;100.00;102470.56;5048005;28;20451;-56
2022/03/06 05:28:00;;;;;;;44.42;18.77;;;;;;;-1.30;100.00;102468.91;5051770;28;20020;-55
2022/03/06 05:30:26;;;;;;;38.80;18.77;;;;;;;-1.33;100.00;102470.69;5018736;28;20036;-55
2022/03/06 05:32:51;;;;;;;43.88;19.33;;;;;;;-1.33;100.00;102467.22;5053876;28;20074;-56
2022/03/06 05:35:16;;;;;;;38.63;18.45;;;;;;;-1.34;100.00;102468.09;5046984;28;20163;-56
2022/03/06 05:37:42;;;;;;;39.97;18.55;;;;;;;-1.36;100.00;102473.41;5032693;28;20024;-56
2022/03/06 05:40:08;;;;;;;40.95;19.02;;;;;;;-1.35;100.00;102487.38;5035022;28;20013;-56
2022/03/06 05:42:34;;;;;;;43.90;20.45;;;;;;;-1.40;100.00;102478.78;5042067;28;20446;-55
2022/03/06 05:44:59;;;;;;;41.83;19.13;;;;;;;-1.38;100.00;102490.06;5044514;28;20068;-56
2022/03/06 05:47:24;;;;;;;40.80;18.45;;;;;;;-1.40;100.00;102482.25;5045859;28;20021;-56
2022/03/06 05:49:50;;;;;;;42.65;19.42;;;;;;;-1.42;100.00;102494.53;5050997;28;20120;-56
2022/03/06 05:52:16;;;;;;;42.33;19.23;;;;;;;-1.46;100.00;102492.91;5032214;28;20021;-56
2022/03/06 05:54:42;;;;;;;39.60;18.55;;;;;;;-1.50;100.00;102486.88;5034038;28;20021;-55
2022/03/06 05:57:07;;;;;;;38.35;18.02;;;;;;;-1.50;100.00;102492.13;5038327;28;20128;-56
2022/03/06 05:59:32;;;;;;;37.75;18.58;;;;;;;-1.51;100.00;102494.78;5043267;28;20483;-56
2022/03/06 06:01:58;;;;;;;42.85;19.25;;;;;;;-1.54;100.00;102497.50;5028415;28;20547;-56
2022/03/06 06:04:23;;;;;;;41.28;18.50;;;;;;;-1.59;100.00;102500.25;5053466;28;20036;-56
2022/03/06 06:06:49;;;;;;;44.85;19.30;;;;;;;-1.59;100.00;102491.53;5049792;28;20299;-55
2022/03/06 06:09:14;;;;;;;40.22;18.80;;;;;;;-1.59;100.00;102510.72;5053132;28;20025;-56
2022/03/06 06:11:40;;;;;;;40.38;18.80;;;;;;;-1.57;100.00;102510.69;5051355;28;20030;-56
2022/03/06 06:14:05;;;;;;;43.22;19.63;;;;;;;-1.57;100.00;102511.53;5053831;28;20078;-56
2022/03/06 06:16:31;;;;;;;40.00;17.90;;;;;;;-1.59;100.00;102512.50;5041581;28;20068;-56
2022/03/06 06:18:57;;;;;;;37.78;18.67;;;;;;;-1.61;100.00;102515.16;5037082;28;20039;-56
2022/03/06 06:21:22;;;;;;;42.85;18.90;;;;;;;-1.62;100.00;102513.41;5029027;28;20279;-56
2022/03/06 06:23:47;;;;;;;43.83;19.13;;;;;;;-1.62;100.00;102515.19;5051655;28;20021;-56
2022/03/06 06:26:13;;;;;;;36.03;17.25;;;;;;;-1.62;100.00;102518.66;5048305;28;20024;-56
2022/03/06 06:28:38;;;;;;;40.95;17.83;;;;;;;-1.57;100.00;102531.66;5043070;28;20112;-56
2022/03/06 06:31:07;;;;;;;39.58;18.13;;;;;;;-1.54;100.00;102531.56;5049674;28;20278;-55
2022/03/06 06:33:34;;;;;;;38.47;18.13;;;;;;;-1.52;100.00;102525.38;5052624;28;20025;-56
2022/03/06 06:35:59;;;;;;;40.78;18.65;;;;;;;-1.51;100.00;102523.59;5049457;28;20539;-56
2022/03/06 06:38:25;;;;;;;41.50;18.83;;;;;;;-1.56;100.00;102529.00;5051598;28;20063;-56
2022/03/06 06:40:51;;;;;;;42.55;19.45;;;;;;;-1.57;100.00;102531.66;5048747;28;20100;-56
2022/03/06 06:43:17;;;;;;;40.40;18.48;;;;;;;-1.57;100.00;102531.66;5047000;28;20063;-56
2022/03/06 06:45:43;;;;;;;41.10;19.05;;;;;;;-1.53;100.00;102530.66;5047042;28;20102;-55
2022/03/06 06:48:08;;;;;;;38.28;18.00;;;;;;;-1.50;100.00;102536.66;5049561;28;20025;-56
2022/03/06 06:50:34;;;;;;;37.90;18.20;;;;;;;-1.48;100.00;102538.41;5047824;28;20119;-56
2022/03/06 06:52:59;;;;;;;37.78;18.30;;;;;;;-1.45;100.00;102547.03;5042104;28;20048;-55
2022/03/06 06:55:24;;;;;;;39.20;18.60;;;;;;;-1.42;100.00;102553.97;5052083;28;20028;-55
2022/03/06 06:57:50;;;;;;;40.67;17.52;;;;;;;-1.41;100.00;102550.41;5047289;28;20617;-55
2022/03/06 07:00:15;;;;;;;39.67;18.98;;;;;;;-1.38;100.00;102559.06;5044033;28;20323;-56
2022/03/06 07:02:42;;;;;;;41.00;18.15;;;;;;;-1.34;100.00;102560.72;5033792;28;20127;-55
2022/03/06 07:05:08;;;;;;;42.10;18.25;;;;;;;-1.32;100.00;102569.38;5049696;28;20082;-55
2022/03/06 07:07:33;;;;;;;37.97;17.88;;;;;;;-1.28;100.00;102575.41;5031070;28;20024;-55
2022/03/06 07:09:58;;;;;;;39.63;18.20;;;;;;;-1.25;100.00;102567.47;5037220;28;20037;-55
2022/03/06 07:12:24;;;;;;;39.58;17.98;;;;;;;-1.22;100.00;102563.88;5055198;28;20622;-55
2022/03/06 07:14:49;;;;;;;40.70;18.23;;;;;;;-1.18;100.00;102560.28;5038529;28;20103;-55
2022/03/06 07:17:14;;;;;;;42.67;17.42;;;;;;;-1.14;100.00;102569.78;5055068;28;20488;-55
2022/03/06 07:19:40;;;;;;;39.85;17.75;;;;;;;-1.10;100.00;102575.78;5056299;28;20029;-55
2022/03/06 07:22:05;;;;;;;38.30;18.52;;;;;;;-1.06;100.00;102573.03;5051953;28;20035;-55
2022/03/06 07:24:30;;;;;;;34.85;17.25;;;;;;;-0.98;100.00;102578.09;5052843;28;20166;-55
2022/03/06 07:26:55;;;;;;;36.30;17.05;;;;;;;-0.91;100.00;102584.03;5050238;28;20063;-55
2022/03/06 07:29:21;;;;;;;39.22;17.15;;;;;;;-0.83;100.00;102590.75;5050653;28;20159;-56
2022/03/06 07:31:46;;;;;;;40.60;18.48;;;;;;;-0.77;100.00;102582.69;5054537;28;20129;-55
2022/03/06 07:34:11;;;;;;;39.20;18.83;;;;;;;-0.71;100.00;102592.16;5055768;28;20008;-55
2022/03/06 07:36:36;;;;;;;38.00;17.70;;;;;;;-0.65;100.00;102586.72;5051010;28;20080;-55
2022/03/06 07:39:02;;;;;;;38.03;17.27;;;;;;;-0.60;100.00;102594.47;5042282;28;20054;-55
2022/03/06 07:41:27;;;;;;;40.30;18.88;;;;;;;-0.53;100.00;102603.00;5020854;28;20609;-55
2022/03/06 07:43:53;;;;;;;41.63;17.85;;;;;;;-0.47;100.00;102606.31;5049557;28;20109;-55
2022/03/06 07:46:19;;;;;;;35.53;16.85;;;;;;;-0.38;100.00;102603.41;5030157;28;20056;-56
2022/03/06 07:48:44;;;;;;;36.03;18.00;;;;;;;-0.28;100.00;102605.75;5056983;28;20021;-55
2022/03/06 07:51:09;;;;;;;37.17;17.63;;;;;;;-0.26;100.00;102606.56;5046561;28;20503;-55
2022/03/06 07:53:35;;;;;;;38.15;17.98;;;;;;;-0.21;100.00;102616.00;5045415;28;20064;-55
2022/03/06 07:56:00;;;;;;;39.25;17.40;;;;;;;-0.13;100.00;102620.19;5053036;28;20055;-55
2022/03/06 07:58:25;;;;;;;36.20;17.15;;;;;;;-0.06;100.00;102616.47;5055530;28;20168;-56
2022/03/06 08:00:51;;;;;;;38.42;18.08;;;;;;;0.03;100.00;102623.19;5047138;28;20079;-55
2022/03/06 08:03:16;;;;;;;37.90;18.73;;;;;;;0.10;100.00;102622.94;5047264;28;20470;-56
2022/03/06 08:05:42;;;;;;;41.08;18.65;;;;;;;0.19;100.00;102632.28;5053307;28;20032;-55
2022/03/06 08:08:07;;;;;;;34.85;17.33;;;;;;;0.24;100.00;102625.13;5052583;28;20071;-55
2022/03/06 08:10:33;;;;;;;34.50;17.15;;;;;;;0.36;100.00;102631.75;5048352;28;20527;-56
2022/03/06 08:12:58;;;;;;;36.35;17.48;;;;;;;0.47;100.00;102636.63;5026896;28;20548;-55
2022/03/06 08:15:24;;;;;;;37.97;17.83;;;;;;;0.57;100.00;102645.06;5048253;28;20028;-55
2022/03/06 08:17:49;;;;;;;32.25;17.00;;;;;;;0.66;100.00;102647.38;5048445;28;20423;-55
2022/03/06 08:20:14;;;;;;;34.20;16.35;;;;;;;0.74;100.00;102648.84;5054240;28;20040;-55
2022/03/06 08:22:40;;;;;;;34.60;16.27;;;;;;;0.78;98.54;102648.72;5051889;28;20093;-55
2022/03/06 08:25:06;;;;;;;39.03;17.42;;;;;;;0.83;99.41;102655.56;5052929;28;20025;-55
2022/03/06 08:27:32;;;;;;;35.38;17.23;;;;;;;0.88;99.71;102652.75;5054094;28;20115;-55
2022/03/06 08:29:58;;;;;;;36.17;17.38;;;;;;;0.96;100.00;102649.88;5053355;28;20294;-56
2022/03/06 08:32:24;;;;;;;32.33;16.80;;;;;;;1.06;100.00;102652.13;5046961;28;20021;-56
2022/03/06 08:34:51;;;;;;;37.90;17.95;;;;;;;1.14;99.47;102645.72;5041354;28;20484;-56
2022/03/06 08:37:20;;;;;;;34.13;18.48;;;;;;;1.20;98.78;102654.25;5044886;28;20060;-55
2022/03/06 08:39:46;;;;;;;33.92;16.15;;;;;;;1.23;97.01;102662.03;5052858;28;20035;-56
2022/03/06 08:42:12;;;;;;;39.53;18.02;;;;;;;1.28;97.90;102660.09;5029905;28;20044;-55
2022/03/06 08:44:38;;;;;;;34.03;18.00;;;;;;;1.38;98.07;102668.53;5050512;28;20071;-55
2022/03/06 08:47:04;;;;;;;35.35;18.77;;;;;;;1.48;98.07;102662.00;5053547;28;20048;-55
2022/03/06 08:49:29;;;;;;;38.72;18.92;;;;;;;1.51;97.48;102658.41;5055007;28;20440;-55
2022/03/06 08:51:54;;;;;;;33.05;17.33;;;;;;;1.54;96.38;102660.91;5051177;28;20054;-55
2022/03/06 08:54:21;;;;;;;32.25;17.48;;;;;;;1.55;96.65;102667.91;5043372;28;20060;-55
2022/03/06 08:56:46;;;;;;;35.58;17.10;;;;;;;1.66;97.14;102659.56;5045887;28;20296;-57
2022/03/06 08:59:11;;;;;;;32.42;16.88;;;;;;;1.72;95.77;102666.41;5050172;28;20016;-55
2022/03/06 09:01:37;;;;;;;38.28;17.70;;;;;;;1.76;96.14;102654.81;5052024;28;20024;-55
2022/03/06 09:04:02;;;;;;;33.97;17.98;;;;;;;1.91;96.55;102669.19;5051281;28;20032;-55
2022/03/06 09:06:28;;;;;;;31.35;17.23;;;;;;;1.99;95.73;102677.66;5049782;28;20421;-56
2022/03/06 09:08:53;;;;;;;32.63;16.17;;;;;;;2.08;95.04;102671.16;5054399;28;20031;-55
2022/03/06 09:11:18;;;;;;;32.95;18.00;;;;;;;2.17;95.27;102682.19;5047681;28;20080;-56
2022/03/06 09:13:43;;;;;;;37.00;18.38;;;;;;;2.24;95.05;102674.88;5039036;28;20032;-55
2022/03/06 09:16:09;;;;;;;32.35;16.98;;;;;;;2.40;94.53;102685.69;5046020;28;20557;-56
2022/03/06 09:18:34;;;;;;;33.17;16.23;;;;;;;2.47;93.39;102673.09;5050239;28;20485;-55
2022/03/06 09:20:59;;;;;;;32.30;16.08;;;;;;;2.50;92.02;102671.19;5044234;28;20099;-55
2022/03/06 09:23:25;;;;;;;32.03;16.35;;;;;;;2.52;92.22;102664.06;5044304;28;20048;-55
2022/03/06 09:25:50;;;;;;;31.85;16.63;;;;;;;2.61;92.63;102663.69;5052895;28;20051;-56
2022/03/06 09:28:15;;;;;;;31.75;16.23;;;;;;;2.68;91.71;102666.06;5053941;28;20234;-55
2022/03/06 09:30:42;;;;;;;29.08;16.33;;;;;;;2.75;91.41;102667.50;5038988;28;20066;-56
2022/03/06 09:33:08;;;;;;;31.02;16.77;;;;;;;2.84;90.56;102667.13;5052088;28;20077;-56
2022/03/06 09:35:33;;;;;;;30.05;16.65;;;;;;;3.02;92.50;102677.81;5035054;28;20562;-55
2022/03/06 09:37:59;;;;;;;31.35;16.40;;;;;;;3.18;91.15;102684.16;5066799;28;20161;-55
2022/03/06 09:40:24;;;;;;;32.20;17.17;;;;;;;3.32;90.50;102676.44;5073805;28;20020;-56
2022/03/06 09:42:50;;;;;;;30.15;16.95;;;;;;;3.45;89.24;102678.56;5073966;28;20058;-56
2022/03/06 09:45:15;;;;;;;32.90;15.95;;;;;;;3.57;88.71;102672.72;5067819;28;20070;-56
2022/03/06 09:47:42;;;;;;;28.52;16.02;;;;;;;3.66;88.96;102669.63;5071788;28;20046;-55
2022/03/06 09:50:09;;;;;;;28.88;15.25;;;;;;;3.76;88.04;102670.06;5056394;28;20035;-56
2022/03/06 09:52:35;;;;;;;34.20;14.75;;;;;;;3.76;87.06;102674.50;5072290;28;20465;-55
2022/03/06 09:55:01;;;;;;;27.20;15.90;;;;;;;3.73;86.87;102675.50;5073528;28;20217;-56
2022/03/06 09:57:26;;;;;;;26.67;15.55;;;;;;;3.84;87.22;102670.56;5073033;28;20450;-55
2022/03/06 09:59:52;;;;;;;35.63;15.65;;;;;;;3.98;86.00;102659.34;5055295;28;20043;-56
2022/03/06 10:02:17;;;;;;;28.52;15.48;;;;;;;4.03;86.94;102667.91;5071589;28;20101;-56
2022/03/06 10:04:43;;;;;;;29.98;15.23;;;;;;;4.06;85.44;102672.22;5066128;28;20051;-55
2022/03/06 10:07:17;;;;;;;30.30;15.27;;;;;;;4.19;85.22;102667.16;5062118;28;20033;-56
2022/03/06 10:09:49;;;;;;;28.80;14.82;;;;;;;4.24;83.02;102666.03;5058934;28;20122;-55
2022/03/06 10:12:22;;;;;;;25.55;14.32;;;;;;;4.37;84.57;102660.97;5057764;28;20032;-55
2022/03/06 10:14:48;;;;;;;26.77;13.43;;;;;;;4.51;83.14;102668.22;5059349;28;20149;-55
2022/03/06 10:17:19;;;;;;;30.05;13.88;;;;;;;4.56;83.61;102671.50;5067821;28;20527;-56
2022/03/06 10:19:58;;;;;;;24.90;14.52;;;;;;;4.65;82.25;102664.88;5072243;28;20055;-56
2022/03/06 10:22:27;;;;;;;27.42;14.05;;;;;;;4.77;81.03;102666.94;5053442;28;20086;-55
2022/03/06 10:24:59;;;;;;;27.98;14.65;;;;;;;4.92;80.54;102667.06;5070998;28;20450;-56
2022/03/06 10:27:49;;;;;;;28.25;14.80;;;;;;;5.04;81.02;102667.28;5071022;28;20051;-55
2022/03/06 10:30:27;;;;;;;26.13;13.68;;;;;;;5.23;79.77;102676.91;5065708;28;20503;-54
2022/03/06 10:32:54;;;;;;;25.85;13.35;;;;;;;5.36;76.66;102675.34;5071857;28;20047;-57
2022/03/06 10:35:23;;;;;;;24.40;12.60;;;;;;;5.50;77.82;102677.25;5060874;28;20073;-55
2022/03/06 10:37:49;;;;;;;23.33;13.30;;;;;;;5.51;75.83;102678.09;5052138;28;20454;-55
2022/03/06 10:40:14;;;;;;;23.00;13.27;;;;;;;5.69;75.36;102678.91;5044890;28;20307;-55
2022/03/06 10:42:43;;;;;;;24.08;13.85;;;;;;;5.87;75.17;102669.94;5034435;28;20032;-54
2022/03/06 10:45:23;;;;;;;26.08;13.43;;;;;;;6.09;75.62;102674.91;5053054;28;20024;-54
2022/03/06 10:47:48;;;;;;;25.48;13.27;;;;;;;6.15;70.37;102666.59;5038620;28;20209;-54
2022/03/06 10:50:20;;;;;;;24.42;13.40;;;;;;;6.29;72.60;102667.59;5047090;28;20388;-54
2022/03/06 10:52:45;;;;;;;24.75;12.75;;;;;;;6.42;71.98;102665.13;5055291;28;20123;-55
2022/03/06 10:55:11;;;;;;;22.52;13.55;;;;;;;6.55;72.87;102663.44;5046725;28;20025;-55
2022/03/06 10:57:36;;;;;;;23.55;13.23;;;;;;;6.64;70.42;102664.72;5052853;28;20029;-54
2022/03/06 11:00:03;;;;;;;22.98;12.55;;;;;;;6.60;68.97;102671.13;5037896;28;20036;-55
2022/03/06 11:02:29;;;;;;;24.30;13.57;;;;;;;6.61;71.39;102671.03;5056518;28;20104;-55
2022/03/06 11:04:58;;;;;;;22.27;13.27;;;;;;;6.64;68.79;102662.06;5042702;28;20052;-55